Time;durP1;ratioP1;P1;durP2;ratioP2;P2;SDS_P1;SDS_P2;PMS_P1;PMS_P2;Temp;Humidity;BMP_temperature;BMP_pressure;BME280_temperature;BME280_humidity;BME280_pressure;Samples;Min_cycle;Max_cycle;Signal;HPM_P1;HPM_P2
2022/04/17 00:00:17;;;;;;;6.95;5.80;;;;;;;13.82;59.53;97342.91;6285909;22;20030;-86
2022/04/17 00:02:43;;;;;;;8.15;6.18;;;;;;;13.78;59.97;97344.13;6285363;22;20003;-85
2022/04/17 00:05:09;;;;;;;8.85;6.03;;;;;;;13.70;60.34;97336.66;6285814;22;20007;-86
2022/04/17 00:07:35;;;;;;;10.98;6.22;;;;;;;13.74;60.48;97324.69;6311323;22;20456;-86
2022/04/17 00:10:01;;;;;;;9.27;5.82;;;;;;;13.78;60.75;97336.06;6284632;22;20462;-86
2022/04/17 00:12:27;;;;;;;9.85;6.50;;;;;;;13.69;61.61;97334.94;6286908;22;19998;-86
2022/04/17 00:14:57;;;;;;;8.73;6.43;;;;;;;13.64;60.08;97323.69;6288264;22;20010;-86
2022/04/17 00:17:23;;;;;;;7.85;6.13;;;;;;;13.62;60.50;97327.47;6289241;22;20081;-86
2022/04/17 00:19:49;;;;;;;13.95;7.30;;;;;;;13.63;61.26;97329.19;6287926;22;20111;-87
2022/04/17 00:22:15;;;;;;;8.93;6.35;;;;;;;13.62;61.24;97327.47;6288134;22;20007;-86
2022/04/17 00:24:42;;;;;;;8.73;6.13;;;;;;;13.63;60.82;97318.44;6288385;22;20473;-86
2022/04/17 00:27:10;;;;;;;9.55;6.00;;;;;;;13.66;60.88;97319.03;6288161;22;20007;-86
2022/04/17 00:29:36;;;;;;;10.00;6.55;;;;;;;13.61;61.16;97325.75;6313983;22;19999;-86
2022/04/17 00:32:01;;;;;;;8.98;6.03;;;;;;;13.62;61.42;97330.16;6288500;22;20015;-86
2022/04/17 00:34:29;;;;;;;8.55;6.22;;;;;;;13.60;61.49;97316.00;6314006;22;20003;-86
2022/04/17 00:36:59;;;;;;;10.57;6.70;;;;;;;13.62;61.41;97322.97;6288326;22;20003;-86
2022/04/17 00:39:25;;;;;;;10.60;6.38;;;;;;;13.67;60.60;97334.22;6289161;22;20089;-86
2022/04/17 00:41:51;;;;;;;9.70;6.50;;;;;;;13.64;61.20;97336.28;6287885;22;20359;-85
2022/04/17 00:44:16;;;;;;;9.00;6.32;;;;;;;13.48;61.29;97315.97;6288092;22;20032;-85
2022/04/17 00:46:42;;;;;;;9.45;6.78;;;;;;;13.38;61.27;97300.69;6288358;22;19999;-85
2022/04/17 00:49:08;;;;;;;8.45;5.75;;;;;;;13.52;61.44;97311.22;6287768;22;20018;-86
2022/04/17 00:51:34;;;;;;;8.88;6.25;;;;;;;13.45;61.73;97310.81;6287588;22;20007;-86
2022/04/17 00:54:02;;;;;;;9.25;6.35;;;;;;;13.46;61.85;97323.28;6287582;22;20010;-85
2022/04/17 00:56:28;;;;;;;8.68;6.43;;;;;;;13.51;61.75;97321.09;6287838;22;20423;-86
2022/04/17 00:58:54;;;;;;;9.88;6.75;;;;;;;13.46;62.40;97317.06;6288008;22;20026;-86
2022/04/17 01:01:19;;;;;;;9.57;6.80;;;;;;;13.42;62.20;97313.75;6288121;22;20038;-86
2022/04/17 01:03:45;;;;;;;10.15;6.07;;;;;;;13.40;61.77;97307.66;6288436;22;20034;-86
2022/04/17 01:06:11;;;;;;;11.80;6.97;;;;;;;13.35;62.33;97306.28;6287638;22;20010;-85
2022/04/17 01:08:41;;;;;;;10.73;6.32;;;;;;;13.34;62.75;97297.38;6287731;22;20005;-85
2022/04/17 01:11:08;;;;;;;8.50;6.68;;;;;;;13.24;63.94;97298.19;6288260;22;20006;-86
2022/04/17 01:13:34;;;;;;;9.95;6.68;;;;;;;13.19;64.36;97293.19;6313798;22;20003;-86
2022/04/17 01:16:01;;;;;;;11.05;6.13;;;;;;;13.17;65.46;97305.84;6287379;22;20010;-85
2022/04/17 01:18:27;;;;;;;8.98;6.55;;;;;;;13.00;66.97;97295.50;6287476;22;20358;-85
2022/04/17 01:20:53;;;;;;;8.25;6.18;;;;;;;12.96;67.95;97304.75;6287942;22;20003;-85
2022/04/17 01:28:47;;;;;;;9.07;6.25;;;;;;;12.81;69.73;97293.34;6316391;22;20327;-86
2022/04/17 01:31:12;;;;;;;8.82;5.90;;;;;;;12.78;70.04;97303.47;6286126;22;20003;-85
2022/04/17 01:33:38;;;;;;;7.38;5.55;;;;;;;12.73;70.37;97301.13;6286796;22;20083;-85
2022/04/17 01:36:03;;;;;;;7.90;6.00;;;;;;;12.72;70.50;97294.03;6285803;22;20389;-86
2022/04/17 01:38:29;;;;;;;8.75;6.38;;;;;;;12.66;71.07;97293.63;6285595;22;20011;-86
2022/04/17 01:40:55;;;;;;;7.65;5.78;;;;;;;12.68;70.09;97291.69;6285972;22;20501;-85
2022/04/17 01:43:26;;;;;;;11.82;5.90;;;;;;;12.63;70.14;97284.00;6287242;22;20435;-85
2022/04/17 01:45:52;;;;;;;9.93;6.10;;;;;;;12.59;71.06;97276.28;6286592;22;20461;-86
2022/04/17 01:48:18;;;;;;;9.25;5.40;;;;;;;12.68;71.18;97302.41;6285191;22;20252;-86
2022/04/17 01:50:43;;;;;;;8.98;5.88;;;;;;;12.53;71.54;97280.28;6285848;22;20113;-85
2022/04/17 01:53:09;;;;;;;7.93;5.72;;;;;;;12.43;72.51;97266.69;6285598;22;20354;-85
2022/04/17 01:55:35;;;;;;;10.00;6.47;;;;;;;12.47;74.35;97286.94;6285519;22;20354;-85
2022/04/17 01:58:00;;;;;;;8.27;5.90;;;;;;;12.30;77.15;97276.63;6311725;22;20007;-85
2022/04/17 02:00:26;;;;;;;8.68;6.28;;;;;;;12.13;78.13;97263.56;6285350;22;20433;-86
2022/04/17 02:02:51;;;;;;;8.52;6.72;;;;;;;12.16;78.98;97265.16;6285399;22;19998;-85
2022/04/17 02:05:17;;;;;;;9.40;6.68;;;;;;;12.09;80.49;97262.06;6284763;22;20358;-85
2022/04/17 02:07:42;;;;;;;10.15;7.13;;;;;;;12.08;81.58;97268.41;6311512;22;20350;-86
2022/04/17 02:10:08;;;;;;;9.98;6.85;;;;;;;12.10;81.35;97273.66;6286598;22;20510;-86
2022/04/17 02:12:34;;;;;;;8.75;6.97;;;;;;;11.81;83.79;97251.66;6312854;22;20069;-85
2022/04/17 02:15:00;;;;;;;10.00;6.80;;;;;;;11.65;92.12;97273.28;6285001;22;20002;-86
2022/04/17 02:17:26;;;;;;;12.15;7.53;;;;;;;11.51;95.22;97291.25;6284488;22;20010;-86
2022/04/17 02:19:51;;;;;;;16.95;8.05;;;;;;;11.30;98.73;97282.91;6284493;22;20076;-86
2022/04/17 02:22:18;;;;;;;11.68;7.47;;;;;;;11.29;97.30;97294.56;6284553;22;20007;-85
2022/04/17 02:24:44;;;;;;;14.05;9.10;;;;;;;11.23;100.00;97282.47;6310676;22;20399;-85
2022/04/17 02:27:09;;;;;;;11.40;7.88;;;;;;;11.22;100.00;97282.59;6310020;22;20022;-85
2022/04/17 02:29:35;;;;;;;13.88;9.40;;;;;;;11.19;100.00;97269.41;6310375;22;20012;-84
2022/04/17 02:32:00;;;;;;;14.50;10.55;;;;;;;11.14;100.00;97267.03;6284216;22;20485;-85
2022/04/17 02:34:26;;;;;;;16.88;9.98;;;;;;;11.13;100.00;97265.34;6284626;22;20002;-85
2022/04/17 02:36:53;;;;;;;17.33;10.18;;;;;;;11.14;100.00;97267.03;6284670;22;20450;-85
2022/04/17 02:39:18;;;;;;;13.77;10.32;;;;;;;11.06;100.00;97265.84;6284741;22;20003;-86
2022/04/17 02:41:44;;;;;;;16.80;10.05;;;;;;;10.95;100.00;97258.53;6284577;22;20010;-85
2022/04/17 02:44:10;;;;;;;21.00;14.60;;;;;;;10.97;100.00;97262.00;6310386;22;20061;-86
2022/04/17 02:49:19;;;;;;;15.65;11.13;;;;;;;10.86;100.00;97272.53;6314229;22;20045;-85
2022/04/17 02:51:45;;;;;;;15.82;10.85;;;;;;;10.93;100.00;97284.56;6284746;22;20089;-85
2022/04/17 02:54:10;;;;;;;16.00;11.00;;;;;;;10.79;100.00;97287.31;6284537;22;20013;-86
2022/04/17 02:56:36;;;;;;;16.38;10.98;;;;;;;10.81;100.00;97288.06;6284226;22;20013;-86
2022/04/17 02:59:01;;;;;;;15.88;10.93;;;;;;;10.79;100.00;97287.31;6284372;22;20010;-85
2022/04/17 03:06:55;;;;;;;15.55;10.48;;;;;;;10.87;100.00;97287.66;6314453;22;20014;-85
2022/04/17 03:09:37;;;;;;;;;;;;;;;;;;;;;
2022/04/17 03:12:03;;;;;;;14.40;10.18;;;;;;;10.82;100.00;97281.75;6291875;22;20502;-84
2022/04/17 03:14:28;;;;;;;17.55;11.30;;;;;;;10.74;100.00;97260.00;6309789;22;20033;-84
2022/04/17 03:17:24;;;;;;;14.63;9.70;;;;;;;10.72;100.00;97261.94;6285904;22;20009;-83
2022/04/17 03:19:52;;;;;;;12.98;8.80;;;;;;;10.46;100.00;97236.91;6285046;22;20010;-84
2022/04/17 03:22:21;;;;;;;15.95;9.75;;;;;;;10.67;100.00;97256.03;6285584;22;19999;-84
2022/04/17 03:24:46;;;;;;;18.58;10.48;;;;;;;10.94;100.00;97297.00;6284095;22;20034;-84
2022/04/17 03:27:12;;;;;;;17.70;10.15;;;;;;;10.86;100.00;97289.47;6283995;22;20006;-85
2022/04/17 03:29:37;;;;;;;20.88;9.50;;;;;;;10.73;100.00;97282.38;6309451;22;20010;-84
2022/04/17 03:32:03;;;;;;;16.38;11.05;;;;;;;10.79;100.00;97301.56;6284446;22;20007;-84
2022/04/17 03:34:29;;;;;;;26.77;10.60;;;;;;;10.71;100.00;97308.34;6284074;22;20003;-84
2022/04/17 03:36:57;;;;;;;22.83;11.80;;;;;;;10.61;100.00;97304.59;6285568;22;20003;-84
2022/04/17 03:39:24;;;;;;;16.92;11.20;;;;;;;10.48;100.00;97292.97;6285910;22;20014;-85
2022/04/17 03:41:50;;;;;;;21.85;11.30;;;;;;;10.49;100.00;97297.38;6286210;22;20040;-84
2022/04/17 03:44:16;;;;;;;17.85;11.48;;;;;;;10.53;100.00;97297.06;6312330;22;20045;-85
2022/04/17 03:46:42;;;;;;;15.68;11.10;;;;;;;10.48;100.00;97303.69;6311134;22;20010;-85
2022/04/17 03:49:07;;;;;;;19.48;12.13;;;;;;;10.41;100.00;97305.03;6312402;22;20021;-84
2022/04/17 03:51:33;;;;;;;19.02;11.57;;;;;;;10.39;100.00;97293.59;6311770;22;20052;-85
2022/04/17 03:54:00;;;;;;;17.80;11.00;;;;;;;10.32;100.00;97288.63;6312516;22;20023;-85
2022/04/17 03:56:26;;;;;;;17.45;11.40;;;;;;;10.30;100.00;97295.03;6285926;22;20059;-84
2022/04/17 03:58:51;;;;;;;17.88;12.20;;;;;;;10.30;100.00;97301.22;6283397;22;20086;-76
2022/04/17 04:01:17;;;;;;;20.55;11.80;;;;;;;10.28;100.00;97288.91;6308217;22;20015;-76
2022/04/17 04:03:43;;;;;;;15.07;10.98;;;;;;;10.27;100.00;97295.25;6308281;22;20003;-76
2022/04/17 04:06:08;;;;;;;17.35;11.38;;;;;;;10.32;100.00;97288.63;6336083;22;20032;-75
2022/04/17 04:08:34;;;;;;;15.85;11.20;;;;;;;10.40;100.00;97300.66;6308420;22;20095;-76
2022/04/17 04:10:59;;;;;;;15.00;10.65;;;;;;;10.39;100.00;97299.78;6308486;22;19999;-76
2022/04/17 04:13:25;;;;;;;19.23;13.20;;;;;;;10.31;100.00;97286.91;6308607;22;20015;-85
2022/04/17 04:15:51;;;;;;;19.02;12.32;;;;;;;10.46;100.00;97287.72;6283233;22;20080;-85
2022/04/17 04:18:16;;;;;;;23.58;12.77;;;;;;;10.40;100.00;97289.97;6309136;22;20033;-85
2022/04/17 04:20:42;;;;;;;16.65;11.50;;;;;;;10.38;100.00;97297.19;6282893;22;20006;-84
2022/04/17 04:23:09;;;;;;;16.50;10.88;;;;;;;10.36;100.00;97288.44;6283667;22;20017;-85
2022/04/17 04:25:35;;;;;;;16.90;10.95;;;;;;;10.37;100.00;97290.16;6283429;22;20074;-85
2022/04/17 04:30:45;;;;;;;17.75;11.70;;;;;;;10.38;100.00;97290.03;6312728;22;20009;-85
2022/04/17 04:33:10;;;;;;;20.52;13.15;;;;;;;10.19;100.00;97287.72;6283900;22;20409;-85
2022/04/17 04:35:36;;;;;;;20.48;13.10;;;;;;;10.31;100.00;97286.03;6309199;22;20448;-83
2022/04/17 04:38:01;;;;;;;19.92;13.35;;;;;;;10.27;100.00;97289.91;6284609;22;20007;-85
2022/04/17 04:40:31;;;;;;;25.98;16.65;;;;;;;10.30;100.00;97284.34;6337456;22;20052;-81
2022/04/17 04:43:06;;;;;;;22.15;13.90;;;;;;;10.32;100.00;97293.97;6284471;22;20502;-85
2022/04/17 04:49:29;;;;;;;17.52;12.13;;;;;;;10.27;100.00;97280.03;6314541;22;20357;-87
2022/04/17 04:51:01;;;;;;;18.70;11.52;;;;;;;10.29;100.00;97275.47;6314889;22;20075;-86
2022/04/17 04:53:32;;;;;;;20.08;12.60;;;;;;;10.30;100.00;97289.69;6285610;22;20462;-87
2022/04/17 04:55:57;;;;;;;16.30;10.70;;;;;;;10.20;100.00;97278.75;6285517;22;20090;-88
2022/04/17 04:58:23;;;;;;;17.27;10.70;;;;;;;10.16;100.00;97258.50;6285864;22;20465;-85
2022/04/17 05:00:48;;;;;;;16.05;10.65;;;;;;;10.24;100.00;97274.88;6285935;22;19999;-83
2022/04/17 05:03:14;;;;;;;19.95;10.98;;;;;;;10.31;100.00;97276.22;6286568;22;20034;-83
2022/04/17 05:05:40;;;;;;;16.95;11.38;;;;;;;10.29;100.00;97277.28;6286242;22;20006;-85
2022/04/17 05:08:05;;;;;;;26.15;16.13;;;;;;;10.26;100.00;97283.69;6312784;22;20006;-83
2022/04/17 05:10:31;;;;;;;22.60;14.52;;;;;;;10.26;100.00;97269.47;6286280;22;20518;-83
2022/04/17 05:12:57;;;;;;;61.58;35.47;;;;;;;10.19;100.00;97265.47;6289843;22;20007;-83
2022/04/17 05:15:22;;;;;;;23.05;12.80;;;;;;;10.07;100.00;97253.72;6292960;22;20007;-84
2022/04/17 05:17:48;;;;;;;17.60;12.50;;;;;;;10.12;100.00;97272.16;6288395;22;20006;-85
2022/04/17 05:20:14;;;;;;;37.58;24.17;;;;;;;9.96;100.00;97248.22;6313481;22;19998;-84
2022/04/17 05:22:40;;;;;;;30.75;16.33;;;;;;;10.02;100.00;97258.53;6286078;22;20116;-83
2022/04/17 05:25:06;;;;;;;21.70;13.35;;;;;;;10.10;100.00;97271.38;6286303;22;20003;-85
2022/04/17 05:27:32;;;;;;;37.10;21.65;;;;;;;10.15;100.00;97277.34;6286600;22;20015;-85
2022/04/17 05:29:58;;;;;;;20.63;13.57;;;;;;;10.04;100.00;97239.69;6313111;22;20024;-85
2022/04/17 05:32:23;;;;;;;32.28;19.00;;;;;;;10.13;100.00;97264.06;6313002;22;20458;-85
2022/04/17 05:34:49;;;;;;;28.70;16.60;;;;;;;10.08;100.00;97257.25;6285418;22;20094;-84
2022/04/17 05:37:15;;;;;;;36.40;21.15;;;;;;;10.13;100.00;97268.50;6286082;22;20004;-84
2022/04/17 05:39:41;;;;;;;25.10;15.57;;;;;;;9.97;100.00;97260.63;6286011;22;20003;-84
2022/04/17 05:42:07;;;;;;;21.73;14.07;;;;;;;9.95;100.00;97254.53;6311403;22;20010;-85
2022/04/17 05:44:35;;;;;;;23.00;13.23;;;;;;;9.92;100.00;97241.34;6285733;22;20335;-85
2022/04/17 05:47:01;;;;;;;21.05;12.35;;;;;;;10.15;100.00;97264.81;6285729;22;20022;-85
2022/04/17 05:49:26;;;;;;;28.45;18.20;;;;;;;10.10;100.00;97245.50;6310817;22;20450;-84
2022/04/17 05:51:53;;;;;;;21.70;12.52;;;;;;;10.00;100.00;97241.72;6286312;22;20136;-85
2022/04/17 05:54:18;;;;;;;18.85;12.57;;;;;;;10.04;100.00;97248.59;6286982;22;20477;-86
2022/04/17 05:56:44;;;;;;;17.15;11.35;;;;;;;10.14;100.00;97262.25;6285886;22;19998;-84
2022/04/17 05:59:09;;;;;;;21.77;13.52;;;;;;;10.05;100.00;97239.63;6284942;22;20003;-85
2022/04/17 06:01:36;;;;;;;15.68;10.90;;;;;;;10.14;100.00;97257.75;6286466;22;20064;-86
2022/04/17 06:04:02;;;;;;;19.48;12.73;;;;;;;10.14;100.00;97263.09;6285401;22;20461;-85
2022/04/17 06:06:27;;;;;;;36.45;22.73;;;;;;;10.11;100.00;97263.28;6311024;22;20086;-85
2022/04/17 06:08:53;;;;;;;25.42;15.77;;;;;;;10.05;100.00;97244.97;6284984;22;20026;-84
2022/04/17 06:11:18;;;;;;;18.85;12.73;;;;;;;10.07;100.00;97245.72;6284967;22;20029;-83
2022/04/17 06:13:44;;;;;;;22.13;13.45;;;;;;;10.20;100.00;97260.03;6286783;22;19999;-84
2022/04/17 06:16:09;;;;;;;33.03;20.25;;;;;;;10.22;100.00;97258.09;6312878;22;20351;-83
2022/04/17 06:18:35;;;;;;;20.05;12.75;;;;;;;10.29;100.00;97254.09;6286425;22;20067;-83
2022/04/17 06:21:01;;;;;;;24.48;14.82;;;;;;;10.34;100.00;97241.25;6286610;22;20380;-84
2022/04/17 06:23:28;;;;;;;21.17;13.63;;;;;;;10.38;100.00;97259.78;6287395;22;20034;-84
2022/04/17 06:25:53;;;;;;;20.75;12.80;;;;;;;10.37;100.00;97244.72;6310307;22;20006;-85
2022/04/17 06:28:19;;;;;;;17.40;11.95;;;;;;;10.50;100.00;97256.28;6284297;22;20454;-84
2022/04/17 06:30:44;;;;;;;20.77;13.45;;;;;;;10.53;100.00;97258.75;6284274;22;20006;-84
2022/04/17 06:33:10;;;;;;;36.85;22.45;;;;;;;10.59;100.00;97253.88;6310489;22;20002;-85
2022/04/17 06:35:38;;;;;;;20.35;13.30;;;;;;;10.67;100.00;97256.03;6284831;22;20060;-83
2022/04/17 06:38:05;;;;;;;24.27;13.90;;;;;;;10.55;100.00;97246.16;6285353;22;20009;-85
2022/04/17 06:40:36;;;;;;;25.90;16.85;;;;;;;10.56;100.00;97251.41;6310717;22;20007;-84
2022/04/17 06:43:08;;;;;;;21.40;12.80;;;;;;;10.61;100.00;97253.78;6285699;22;20003;-83
2022/04/17 06:45:36;;;;;;;19.23;12.23;;;;;;;10.42;100.00;97253.28;6284749;22;20005;-83
2022/04/17 06:48:18;;;;;;;20.25;13.43;;;;;;;10.58;100.00;97260.16;6283653;22;20525;-85
2022/04/17 06:50:47;;;;;;;22.35;13.23;;;;;;;10.67;100.00;97266.75;6283859;22;20007;-84
2022/04/17 06:53:13;;;;;;;25.05;13.27;;;;;;;10.72;100.00;97260.13;6310122;22;20014;-85
2022/04/17 06:55:39;;;;;;;24.02;15.10;;;;;;;10.79;100.00;97263.25;6283639;22;20347;-84
2022/04/17 06:58:05;;;;;;;20.05;13.38;;;;;;;10.65;100.00;97253.47;6283546;22;20003;-84
2022/04/17 07:00:30;;;;;;;20.75;13.32;;;;;;;10.75;100.00;97264.41;6309757;22;20007;-85
2022/04/17 07:02:56;;;;;;;18.10;12.35;;;;;;;10.74;100.00;97257.31;6310214;22;20038;-85
2022/04/17 07:05:22;;;;;;;15.88;11.70;;;;;;;10.71;100.00;97257.53;6284593;22;20007;-84
2022/04/17 07:07:56;;;;;;;20.05;12.20;;;;;;;10.76;100.00;97266.13;6284028;22;19998;-85
2022/04/17 07:10:22;;;;;;;17.02;11.68;;;;;;;10.64;100.00;97258.91;6309990;22;20006;-84
2022/04/17 07:12:47;;;;;;;22.02;13.48;;;;;;;10.72;100.00;97256.56;6284547;22;20007;-83
2022/04/17 07:15:13;;;;;;;24.05;12.82;;;;;;;10.61;100.00;97262.63;6284152;22;20002;-84
2022/04/17 07:17:40;;;;;;;25.73;12.63;;;;;;;10.69;100.00;97256.78;6284379;22;20022;-84
2022/04/17 07:20:07;;;;;;;37.75;18.08;;;;;;;10.73;100.00;97248.47;6284281;22;20435;-85
2022/04/17 07:22:37;;;;;;;23.58;13.00;;;;;;;10.96;100.00;97260.28;6283381;22;20086;-84
2022/04/17 07:25:04;;;;;;;19.77;12.25;;;;;;;10.89;100.00;97267.00;6283726;22;20433;-84
2022/04/17 07:27:36;;;;;;;20.35;12.25;;;;;;;10.87;100.00;97256.41;6284249;22;19999;-84
2022/04/17 07:30:14;;;;;;;24.23;15.60;;;;;;;10.77;100.00;97246.41;6284879;22;20079;-84
2022/04/17 07:32:41;;;;;;;40.00;23.98;;;;;;;10.85;100.00;97254.81;6285038;22;20358;-84
2022/04/17 07:35:10;;;;;;;20.83;13.90;;;;;;;10.78;100.00;97242.78;6284892;22;20003;-84
2022/04/17 07:37:36;;;;;;;21.08;12.32;;;;;;;10.97;100.00;97256.63;6286136;22;20391;-84
2022/04/17 07:40:19;;;;;;;20.23;12.77;;;;;;;10.98;100.00;97258.38;6283375;22;20433;-83
2022/04/17 07:42:44;;;;;;;16.40;11.18;;;;;;;10.82;100.00;97244.31;6283480;22;20014;-84
2022/04/17 07:45:11;;;;;;;28.08;16.40;;;;;;;10.94;100.00;97253.31;6283088;22;20003;-84
2022/04/17 07:47:36;;;;;;;19.02;8.82;;;;;;;10.18;100.00;97253.09;6283748;22;20410;-84
2022/04/17 07:50:03;;;;;;;16.88;9.38;;;;;;;10.16;100.00;97249.63;6282898;22;20076;-84
2022/04/17 07:52:29;;;;;;;19.15;11.43;;;;;;;10.31;100.00;97253.97;6283731;22;20010;-85
2022/04/17 07:54:54;;;;;;;10.65;6.15;;;;;;;10.17;100.00;97243.34;6309616;22;20063;-85
2022/04/17 07:57:20;;;;;;;12.00;5.80;;;;;;;10.30;100.00;97246.94;6283059;22;20497;-85
2022/04/17 07:59:45;;;;;;;8.60;5.93;;;;;;;10.28;100.00;97244.34;6309325;22;20026;-84
2022/04/17 08:02:39;;;;;;;11.32;5.70;;;;;;;10.16;100.00;97244.28;6283229;22;20025;-84
2022/04/17 08:05:02;;;;;;;14.50;8.05;;;;;;;10.07;100.00;97251.06;6313341;22;20472;-82
2022/04/17 08:07:27;;;;;;;10.90;6.28;;;;;;;10.19;100.00;97250.28;6283312;22;19999;-83
2022/04/17 08:09:53;;;;;;;8.60;5.63;;;;;;;10.20;100.00;97240.47;6283502;22;20029;-84
2022/04/17 08:12:18;;;;;;;9.55;6.05;;;;;;;10.27;100.00;97250.63;6283356;22;20358;-84
2022/04/17 08:14:44;;;;;;;11.10;6.57;;;;;;;10.47;100.00;97243.97;6283491;22;20461;-84
2022/04/17 08:17:09;;;;;;;9.13;5.88;;;;;;;10.31;100.00;97248.63;6283452;22;19999;-84
2022/04/17 08:19:35;;;;;;;10.20;5.95;;;;;;;10.48;100.00;97247.53;6282820;22;20006;-84
2022/04/17 08:22:04;;;;;;;7.90;5.95;;;;;;;10.59;100.00;97248.50;6283203;22;20006;-84
2022/04/17 08:24:30;;;;;;;9.80;5.90;;;;;;;10.62;100.00;97248.31;6283118;22;20345;-84
2022/04/17 08:26:58;;;;;;;10.65;6.80;;;;;;;10.85;100.00;97236.06;6282987;22;20487;-84
2022/04/17 08:29:24;;;;;;;9.48;6.20;;;;;;;10.83;100.00;97251.34;6308626;22;20003;-84
2022/04/17 08:31:50;;;;;;;11.10;7.30;;;;;;;10.74;100.00;97249.28;6282914;22;20014;-84
2022/04/17 08:34:15;;;;;;;10.98;6.93;;;;;;;10.77;100.00;97246.41;6284517;22;20056;-85
2022/04/17 08:36:41;;;;;;;12.32;6.75;;;;;;;10.76;100.00;97255.41;6310767;22;20009;-84
2022/04/17 08:39:06;;;;;;;10.15;7.13;;;;;;;10.40;100.00;97244.50;6285192;22;20009;-83
2022/04/17 08:41:32;;;;;;;12.25;6.47;;;;;;;10.32;100.00;97245.88;6284852;22;20010;-84
2022/04/17 08:43:58;;;;;;;10.40;6.40;;;;;;;10.16;100.00;97249.63;6285018;22;20011;-83
2022/04/17 08:46:24;;;;;;;7.00;4.93;;;;;;;10.28;100.00;97251.50;6310688;22;19995;-83
2022/04/17 08:48:51;;;;;;;4.78;3.67;;;;;;;10.06;100.00;97254.66;6284498;22;20097;-84
2022/04/17 08:51:17;;;;;;;9.60;5.35;;;;;;;9.86;100.00;97244.44;6284903;22;20003;-84
2022/04/17 08:53:44;;;;;;;8.23;4.75;;;;;;;9.87;100.00;97262.19;6284928;22;20434;-83
2022/04/17 08:56:09;;;;;;;9.02;6.13;;;;;;;9.71;100.00;97264.09;6284677;22;20439;-83
2022/04/17 08:58:36;;;;;;;6.05;4.30;;;;;;;9.51;100.00;97259.13;6284900;22;19999;-83
2022/04/17 09:01:02;;;;;;;8.38;5.82;;;;;;;9.54;100.00;97258.94;6284644;22;20350;-83
2022/04/17 09:03:28;;;;;;;12.65;6.25;;;;;;;9.47;100.00;97270.97;6284859;22;20077;-84
2022/04/17 09:05:53;;;;;;;10.05;6.40;;;;;;;9.67;100.00;97271.44;6284682;22;20018;-82
2022/04/17 09:08:21;;;;;;;10.07;5.97;;;;;;;9.75;100.00;97265.63;6284757;22;19998;-82
2022/04/17 09:10:56;;;;;;;7.97;4.95;;;;;;;9.69;100.00;97274.03;6284942;22;20034;-82
2022/04/17 09:13:29;;;;;;;5.38;4.40;;;;;;;9.60;100.00;97277.25;6284676;22;20003;-83
2022/04/17 09:15:55;;;;;;;6.47;4.35;;;;;;;9.37;100.00;97264.47;6284683;22;20344;-83
2022/04/17 09:18:21;;;;;;;7.45;4.78;;;;;;;9.44;100.00;97268.50;6284884;22;20037;-83
2022/04/17 09:20:47;;;;;;;5.93;3.60;;;;;;;9.42;100.00;97276.59;6285653;22;20044;-83
2022/04/17 09:23:13;;;;;;;5.35;3.58;;;;;;;9.22;100.00;97267.16;6284908;22;20088;-83
2022/04/17 09:25:38;;;;;;;4.22;2.88;;;;;;;9.03;100.00;97233.66;6310929;22;20013;-83
2022/04/17 09:28:07;;;;;;;6.22;3.83;;;;;;;9.11;100.00;97266.91;6284746;22;20002;-83
2022/04/17 09:30:38;;;;;;;8.27;4.78;;;;;;;9.07;100.00;97273.41;6285434;22;20064;-83
2022/04/17 09:33:15;;;;;;;6.55;3.03;;;;;;;9.05;100.00;97267.28;6285728;22;20465;-84
2022/04/17 09:35:52;;;;;;;7.50;4.00;;;;;;;9.07;100.00;97262.75;6287053;22;20412;-84
2022/04/17 09:38:26;;;;;;;6.50;4.13;;;;;;;8.96;100.00;97265.19;6285188;22;20026;-83
2022/04/17 09:41:08;;;;;;;7.10;4.60;;;;;;;9.14;100.00;97255.19;6286068;22;20011;-83
2022/04/17 09:43:36;;;;;;;10.43;5.70;;;;;;;9.30;100.00;97257.78;6309982;22;20003;-84
2022/04/17 09:46:06;;;;;;;13.80;7.43;;;;;;;9.43;100.00;97254.28;6285826;22;20121;-84
2022/04/17 09:48:37;;;;;;;25.00;8.75;;;;;;;9.29;100.00;97242.75;6285201;22;20429;-83
2022/04/17 09:51:22;;;;;;;15.38;7.82;;;;;;;9.19;100.00;97259.31;6284824;22;20006;-83
2022/04/17 09:53:59;;;;;;;16.73;6.53;;;;;;;8.95;100.00;97241.28;6285930;22;20412;-83
2022/04/17 09:56:39;;;;;;;16.38;7.28;;;;;;;8.97;100.00;97256.25;6312351;22;20406;-83
2022/04/17 09:59:17;;;;;;;13.68;6.68;;;;;;;8.57;100.00;97251.56;6284840;22;20014;-83
2022/04/17 10:01:47;;;;;;;15.02;8.65;;;;;;;8.79;100.00;97245.81;6285258;22;20040;-82
2022/04/17 10:04:16;;;;;;;11.38;8.13;;;;;;;9.16;100.00;97250.66;6284019;22;20452;-82
2022/04/17 10:06:42;;;;;;;16.58;9.68;;;;;;;9.16;100.00;97239.97;6284661;22;19999;-82
2022/04/17 10:09:09;;;;;;;9.55;6.20;;;;;;;9.16;100.00;97254.19;6283899;22;20006;-82
2022/04/17 10:11:37;;;;;;;8.82;5.70;;;;;;;9.16;100.00;97261.31;6283900;22;19999;-83
2022/04/17 10:14:04;;;;;;;8.27;5.57;;;;;;;9.33;100.00;97257.59;6286509;22;20006;-83
2022/04/17 10:16:31;;;;;;;12.02;6.32;;;;;;;9.48;100.00;97259.31;6284163;22;20151;-83
2022/04/17 10:18:57;;;;;;;9.82;6.35;;;;;;;9.16;100.00;97251.50;6284197;22;20056;-83
2022/04/17 10:21:25;;;;;;;10.68;6.13;;;;;;;9.03;100.00;97255.00;6284105;22;20044;-81
2022/04/17 10:23:53;;;;;;;13.20;8.45;;;;;;;9.06;100.00;97245.00;6283982;22;20002;-81
2022/04/17 10:26:21;;;;;;;26.15;15.77;;;;;;;9.12;100.00;97255.31;6284459;22;20097;-82
2022/04/17 10:28:49;;;;;;;7.70;5.40;;;;;;;8.84;100.00;97260.59;6310100;22;20009;-82
2022/04/17 10:31:21;;;;;;;7.13;4.65;;;;;;;8.64;100.00;97242.25;6284152;22;20010;-82
2022/04/17 10:34:11;;;;;;;7.93;5.03;;;;;;;8.77;100.00;97253.88;6284613;22;20068;-83
2022/04/17 10:37:12;;;;;;;7.65;4.90;;;;;;;8.88;100.00;97258.59;6337998;22;19999;-83
2022/04/17 10:39:46;;;;;;;6.22;3.83;;;;;;;8.65;100.00;97251.94;6277079;22;20007;-83
2022/04/17 10:42:11;;;;;;;5.85;4.18;;;;;;;8.63;100.00;97240.53;6283674;22;20006;-83
2022/04/17 10:44:41;;;;;;;10.18;5.57;;;;;;;8.63;100.00;97240.53;6283986;22;20427;-82
2022/04/17 10:47:06;;;;;;;8.10;4.95;;;;;;;8.67;100.00;97236.75;6284794;22;20006;-84
2022/04/17 10:49:32;;;;;;;9.55;5.97;;;;;;;8.65;100.00;97243.94;6309424;22;20023;-84
2022/04/17 10:51:59;;;;;;;9.70;6.20;;;;;;;8.85;100.00;97238.31;6283633;22;20017;-83
2022/04/17 10:54:25;;;;;;;7.72;4.85;;;;;;;8.90;100.00;97238.00;6309705;22;20029;-84
2022/04/17 10:56:54;;;;;;;13.35;5.82;;;;;;;9.03;100.00;97237.19;6283445;22;20009;-83
2022/04/17 10:59:30;;;;;;;7.75;5.30;;;;;;;9.02;100.00;97232.81;6337375;22;20003;-83
2022/04/17 11:02:05;;;;;;;11.40;7.10;;;;;;;8.83;100.00;97232.19;6283263;22;20009;-83
2022/04/17 11:04:37;;;;;;;8.05;5.57;;;;;;;8.67;100.00;97248.25;6309479;22;20010;-84
2022/04/17 11:07:09;;;;;;;15.23;8.95;;;;;;;8.77;100.00;97245.88;6309497;22;20061;-83
2022/04/17 11:09:41;;;;;;;11.20;7.50;;;;;;;8.83;100.00;97237.53;6309567;22;20007;-83
2022/04/17 11:12:10;;;;;;;11.15;7.20;;;;;;;9.00;100.00;97256.06;6283884;22;20139;-83
2022/04/17 11:14:35;;;;;;;7.93;5.20;;;;;;;8.86;100.00;97232.00;6309507;22;20049;-82
2022/04/17 11:17:11;;;;;;;8.88;5.72;;;;;;;8.45;100.00;97242.47;6283778;22;20381;-82
2022/04/17 11:19:39;;;;;;;9.25;4.90;;;;;;;8.37;100.00;97244.72;6285626;22;20022;-82
2022/04/17 11:22:08;;;;;;;7.88;5.18;;;;;;;8.55;100.00;97258.78;6283273;22;20003;-83
2022/04/17 11:24:55;;;;;;;12.68;6.90;;;;;;;8.84;100.00;97257.06;6284783;22;20089;-83
2022/04/17 11:27:51;;;;;;;13.57;7.32;;;;;;;8.80;100.00;97253.72;6310871;22;20006;-82
2022/04/17 11:30:19;;;;;;;11.50;6.97;;;;;;;8.90;100.00;97262.88;6284956;22;20003;-83
2022/04/17 11:32:46;;;;;;;13.70;7.93;;;;;;;8.83;100.00;97253.53;6310847;22;20003;-83
2022/04/17 11:35:14;;;;;;;12.40;7.50;;;;;;;9.03;100.00;97255.88;6309600;22;20056;-83
2022/04/17 11:37:40;;;;;;;13.30;6.90;;;;;;;9.09;100.00;97244.81;6284468;22;20003;-83
2022/04/17 11:40:16;;;;;;;7.20;5.20;;;;;;;8.88;100.00;97245.25;6283339;22;20002;-82
2022/04/17 11:42:43;;;;;;;7.70;5.38;;;;;;;8.87;100.00;97239.06;6284820;22;20003;-82